Time;durP1;ratioP1;P1;durP2;ratioP2;P2;SDS_P1;SDS_P2;PMS_P1;PMS_P2;Temp;Humidity;BMP_temperature;BMP_pressure;BME280_temperature;BME280_humidity;BME280_pressure;Samples;Min_cycle;Max_cycle;Signal;HPM_P1;HPM_P2
2022/03/27 00:00:48;;;;;;;;;;;8.20;65.80;;;;;;5110766;28;20282;-89
2022/03/27 00:03:14;;;;;;;;;;;8.10;66.50;;;;;;5111089;28;19912;-89
2022/03/27 00:05:39;;;;;;;;;;;8.10;67.60;;;;;;5110848;28;20002;-90
2022/03/27 00:08:05;;;;;;;;;;;7.90;67.60;;;;;;5110567;28;19973;-89
2022/03/27 00:11:23;;;;;;;;;;;7.90;67.40;;;;;;5110231;28;19919;-89
2022/03/27 00:13:16;;;;;;;;;;;7.90;67.50;;;;;;5110471;28;19912;-89
2022/03/27 00:15:42;;;;;;;;;;;7.70;67.10;;;;;;5110499;28;19915;-89
2022/03/27 00:18:07;;;;;;;;;;;7.50;68.90;;;;;;5110797;28;20270;-90
2022/03/27 00:20:33;;;;;;;;;;;7.40;69.80;;;;;;5111312;28;19912;-89
2022/03/27 00:22:58;;;;;;;;;;;7.30;72.90;;;;;;5110874;28;20015;-90
2022/03/27 00:25:24;;;;;;;;;;;7.40;74.40;;;;;;5109164;28;19999;-89
2022/03/27 00:27:49;;;;;;;;;;;7.40;72.00;;;;;;5110227;28;19945;-89
2022/03/27 00:30:15;;;;;;;;;;;7.40;71.10;;;;;;5110128;28;19908;-89
2022/03/27 00:32:40;;;;;;;;;;;7.30;71.60;;;;;;5110084;28;19933;-90
2022/03/27 00:35:06;;;;;;;;;;;7.30;71.90;;;;;;5110102;28;19912;-89
2022/03/27 00:37:33;;;;;;;;;;;7.30;72.10;;;;;;5110292;28;19908;-89
2022/03/27 00:39:59;;;;;;;;;;;7.20;73.20;;;;;;5090427;28;19952;-89
2022/03/27 00:42:24;;;;;;;;;;;7.40;72.90;;;;;;5089354;28;19971;-89
2022/03/27 00:44:50;;;;;;;;;;;7.40;72.90;;;;;;5089573;28;19995;-90
2022/03/27 00:47:16;;;;;;;;;;;7.40;74.10;;;;;;5089534;28;19915;-89
2022/03/27 00:49:41;;;;;;;;;;;7.40;74.60;;;;;;5089465;28;19954;-89
2022/03/27 00:52:07;;;;;;;;;;;7.50;75.10;;;;;;5089437;28;19912;-89
2022/03/27 00:54:32;;;;;;;;;;;7.50;73.80;;;;;;5079081;28;20286;-90
2022/03/27 00:56:58;;;;;;;;;;;7.50;69.10;;;;;;5075800;28;19909;-89
2022/03/27 00:59:23;;;;;;;;;;;7.40;69.90;;;;;;5075808;28;20001;-90
2022/03/27 01:01:49;;;;;;;;;;;7.40;71.30;;;;;;5075716;28;20033;-89
2022/03/27 01:04:15;;;;;;;;;;;7.40;72.20;;;;;;5075961;28;19908;-89
2022/03/27 01:06:42;;;;;;;;;;;7.40;71.20;;;;;;5075942;28;19915;-89
2022/03/27 01:11:56;;;;;;;;;;;7.30;70.30;;;;;;5075894;28;19920;-89
2022/03/27 01:14:26;;;;;;;;;;;7.30;71.70;;;;;;5075516;28;19995;-89
2022/03/27 01:17:07;;;;;;;;;;;7.30;71.50;;;;;;5076046;28;19915;-89
2022/03/27 01:19:33;;;;;;;;;;;7.20;70.10;;;;;;5075471;28;19916;-89
2022/03/27 01:22:00;;;;;;;;;;;6.90;69.00;;;;;;5075299;28;19913;-89
2022/03/27 01:24:26;;;;;;;;;;;6.90;70.40;;;;;;5075626;28;19913;-89
2022/03/27 01:26:51;;;;;;;;;;;6.90;72.50;;;;;;5075269;28;20396;-88
2022/03/27 01:29:17;;;;;;;;;;;7.00;73.00;;;;;;5075215;28;20290;-89
2022/03/27 01:31:42;;;;;;;;;;;7.00;73.20;;;;;;5075088;28;19908;-89
2022/03/27 01:34:08;;;;;;;;;;;6.90;73.10;;;;;;5075125;28;19957;-89
2022/03/27 01:36:34;;;;;;;;;;;6.90;73.40;;;;;;5075051;28;20270;-89
2022/03/27 01:39:01;;;;;;;;;;;6.80;73.80;;;;;;5085194;28;19912;-89
2022/03/27 01:41:27;;;;;;;;;;;6.70;74.30;;;;;;5094964;28;19919;-89
2022/03/27 01:43:52;;;;;;;;;;;6.60;75.30;;;;;;5094984;28;19920;-89
2022/03/27 01:46:18;;;;;;;;;;;6.50;76.50;;;;;;5095077;28;19937;-89
2022/03/27 01:48:44;;;;;;;;;;;6.60;76.30;;;;;;5095089;28;19992;-89
2022/03/27 01:51:10;;;;;;;;;;;6.60;73.70;;;;;;5093708;28;19961;-89
2022/03/27 01:53:37;;;;;;;;;;;6.70;72.10;;;;;;5095035;28;19908;-89
2022/03/27 01:56:03;;;;;;;;;;;6.70;72.30;;;;;;5094949;28;19942;-89
2022/03/27 01:58:30;;;;;;;;;;;6.70;74.20;;;;;;5095139;28;19930;-90
2022/03/27 02:00:56;;;;;;;;;;;6.60;74.90;;;;;;5094816;28;19908;-89
2022/03/27 02:03:22;;;;;;;;;;;6.50;76.10;;;;;;5094710;28;19919;-90
2022/03/27 02:05:48;;;;;;;;;;;6.40;76.80;;;;;;5093729;28;19908;-89
2022/03/27 02:08:13;;;;;;;;;;;6.40;76.80;;;;;;5088964;28;20255;-90
2022/03/27 02:10:40;;;;;;;;;;;6.40;76.00;;;;;;5074332;28;20286;-90
2022/03/27 02:13:10;;;;;;;;;;;6.40;75.90;;;;;;5074425;28;20167;-89
2022/03/27 02:15:36;;;;;;;;;;;6.40;75.60;;;;;;5074380;28;19913;-89
2022/03/27 02:18:02;;;;;;;;;;;6.40;74.60;;;;;;5074248;28;19970;-89
2022/03/27 02:20:28;;;;;;;;;;;6.40;74.00;;;;;;5074195;28;19988;-89
2022/03/27 02:22:53;;;;;;;;;;;6.40;73.10;;;;;;5074115;28;19912;-89
2022/03/27 02:25:19;;;;;;;;;;;6.40;72.80;;;;;;5074120;28;19908;-89
2022/03/27 02:27:44;;;;;;;;;;;6.40;72.00;;;;;;5074060;28;20274;-89
2022/03/27 02:30:10;;;;;;;;;;;6.60;71.60;;;;;;5073912;28;19915;-89
2022/03/27 02:32:36;;;;;;;;;;;6.60;71.80;;;;;;5072594;28;20003;-89
2022/03/27 02:35:01;;;;;;;;;;;6.50;72.00;;;;;;5073919;28;19908;-89
2022/03/27 02:37:28;;;;;;;;;;;6.60;72.50;;;;;;5074207;28;19986;-89
2022/03/27 02:39:53;;;;;;;;;;;6.60;72.40;;;;;;5092524;28;19909;-89
2022/03/27 02:42:19;;;;;;;;;;;6.60;72.60;;;;;;5093998;28;19927;-89
2022/03/27 02:44:44;;;;;;;;;;;6.60;72.60;;;;;;5094084;28;19908;-89
2022/03/27 02:47:10;;;;;;;;;;;6.60;71.10;;;;;;5094003;28;19908;-89
2022/03/27 02:49:35;;;;;;;;;;;6.60;71.30;;;;;;5093967;28;19995;-90
2022/03/27 02:52:01;;;;;;;;;;;6.50;72.10;;;;;;5093825;28;19944;-89
2022/03/27 02:54:27;;;;;;;;;;;6.40;72.50;;;;;;5073587;28;19944;-89
2022/03/27 02:56:52;;;;;;;;;;;6.30;72.40;;;;;;5073538;28;19954;-89
2022/03/27 02:59:18;;;;;;;;;;;6.30;72.40;;;;;;5073510;28;19908;-89
2022/03/27 03:01:43;;;;;;;;;;;6.20;72.20;;;;;;5073491;28;19999;-88
2022/03/27 03:04:09;;;;;;;;;;;6.10;72.70;;;;;;5073506;28;19915;-89
2022/03/27 03:06:35;;;;;;;;;;;6.10;73.60;;;;;;5073715;28;19908;-89
2022/03/27 03:09:01;;;;;;;;;;;6.10;74.90;;;;;;5084899;28;19951;-89
2022/03/27 03:11:26;;;;;;;;;;;6.10;75.50;;;;;;5093596;28;20089;-89
2022/03/27 03:13:52;;;;;;;;;;;6.10;76.00;;;;;;5093566;28;20413;-90
2022/03/27 03:16:19;;;;;;;;;;;6.10;76.90;;;;;;5093509;28;19915;-89
2022/03/27 03:18:45;;;;;;;;;;;6.10;77.70;;;;;;5093516;28;19957;-89
2022/03/27 03:21:10;;;;;;;;;;;6.10;78.40;;;;;;5093451;28;20053;-89
2022/03/27 03:23:36;;;;;;;;;;;6.20;77.80;;;;;;5093306;28;19912;-89
2022/03/27 03:26:03;;;;;;;;;;;6.20;76.90;;;;;;5093359;28;19917;-90
2022/03/27 03:28:29;;;;;;;;;;;6.20;76.40;;;;;;5093334;28;19961;-89
2022/03/27 03:30:55;;;;;;;;;;;6.20;76.50;;;;;;5093238;28;19908;-88
2022/03/27 03:33:20;;;;;;;;;;;5.80;78.10;;;;;;5093326;28;19912;-90
2022/03/27 03:35:46;;;;;;;;;;;5.70;79.20;;;;;;5093283;28;19958;-89
2022/03/27 03:38:12;;;;;;;;;;;5.60;79.40;;;;;;5088640;28;19913;-89
2022/03/27 03:40:40;;;;;;;;;;;5.50;79.20;;;;;;5073072;28;20003;-89
2022/03/27 03:43:05;;;;;;;;;;;5.50;79.80;;;;;;5072842;28;19921;-89
2022/03/27 03:45:31;;;;;;;;;;;5.50;79.90;;;;;;5072995;28;19995;-90
2022/03/27 03:47:59;;;;;;;;;;;5.60;79.60;;;;;;5072993;28;19916;-89
2022/03/27 03:50:25;;;;;;;;;;;5.40;79.30;;;;;;5072947;28;20449;-89
2022/03/27 03:52:51;;;;;;;;;;;5.40;81.40;;;;;;5072898;28;19958;-89
2022/03/27 03:55:16;;;;;;;;;;;5.40;82.40;;;;;;5072934;28;19908;-89
2022/03/27 03:57:42;;;;;;;;;;;5.40;83.60;;;;;;5072868;28;20363;-89
2022/03/27 04:00:07;;;;;;;;;;;5.30;83.60;;;;;;5072870;28;19913;-89
2022/03/27 04:02:33;;;;;;;;;;;5.20;84.00;;;;;;5072771;28;19912;-89
2022/03/27 04:05:01;;;;;;;;;;;5.30;83.80;;;;;;5072784;28;20282;-89
2022/03/27 04:07:26;;;;;;;;;;;5.20;81.80;;;;;;5073092;28;19943;-89
2022/03/27 04:09:52;;;;;;;;;;;5.20;82.40;;;;;;5090692;28;19989;-89
2022/03/27 04:12:17;;;;;;;;;;;5.30;82.70;;;;;;5092977;28;19912;-89
2022/03/27 04:14:43;;;;;;;;;;;5.30;82.90;;;;;;5092978;28;19990;-89
2022/03/27 04:17:09;;;;;;;;;;;5.20;83.70;;;;;;5092891;28;19951;-89
2022/03/27 04:19:34;;;;;;;;;;;5.10;83.70;;;;;;5092906;28;19908;-89
2022/03/27 04:22:00;;;;;;;;;;;5.00;83.30;;;;;;5092793;28;19912;-89
2022/03/27 04:24:26;;;;;;;;;;;5.00;83.50;;;;;;5092846;28;20278;-89
2022/03/27 04:26:51;;;;;;;;;;;5.00;82.00;;;;;;5092874;28;19908;-89
2022/03/27 04:29:17;;;;;;;;;;;4.90;81.20;;;;;;5094473;28;19912;-89
2022/03/27 04:31:43;;;;;;;;;;;4.90;80.50;;;;;;5096821;28;19908;-89
2022/03/27 04:34:09;;;;;;;;;;;5.00;79.70;;;;;;5096608;28;19973;-89
2022/03/27 04:36:35;;;;;;;;;;;5.10;78.80;;;;;;5096594;28;20366;-89
2022/03/27 04:39:01;;;;;;;;;;;5.00;78.00;;;;;;5085265;28;19912;-89
2022/03/27 04:44:19;;;;;;;;;;;4.50;77.30;;;;;;5111106;27;20308;-89
